Terminal Aerodrome Forecast
Issued by NWS

Home | Current Version | Previous Version | Text Only | Print | Product List | Glossary On
Versions: 1 2 3 4 5 6 7 8 9 10 11 12 13 14 15 16 17 18 19 20 21 22 23 24 25 26 27
000
FTUS44 KFWD 222100 AAA
TAFAFW
TAF AMD
KAFW 222103Z 2221/2318 31013KT P6SM SCT250
     FM230000 34010KT P6SM BKN250
     FM231100 36008KT 6SM RA OVC040=

USA.gov is the U.S. government's official web portal to all federal, state and local government web resources and services.